sensor_id;sensor_type;location;lat;lon;timestamp;pressure;altitude;pressure_sealevel;temperature;humidity
76586;BME280;65251;51.022;13.736;2023-02-01T00:00:28;99138.38;;;5.04;71.99
76586;BME280;65251;51.022;13.736;2023-02-01T00:00:58;99140.19;;;5.04;72.31
76586;BME280;65251;51.022;13.736;2023-02-01T00:01:30;99144.97;;;5.00;72.05
76586;BME280;65251;51.022;13.736;2023-02-01T00:02:01;99140.72;;;4.99;71.83
76586;BME280;65251;51.022;13.736;2023-02-01T00:02:32;99139.91;;;4.99;71.91
76586;BME280;65251;51.022;13.736;2023-02-01T00:03:04;99141.06;;;4.96;72.20
76586;BME280;65251;51.022;13.736;2023-02-01T00:03:36;99143.06;;;4.94;72.36
76586;BME280;65251;51.022;13.736;2023-02-01T00:04:08;99132.66;;;4.93;72.02
76586;BME280;65251;51.022;13.736;2023-02-01T00:04:38;99140.75;;;4.91;72.50
76586;BME280;65251;51.022;13.736;2023-02-01T00:05:10;99135.00;;;4.88;72.50
76586;BME280;65251;51.022;13.736;2023-02-01T00:05:41;99140.25;;;4.88;72.70
76586;BME280;65251;51.022;13.736;2023-02-01T00:06:12;99147.53;;;4.85;72.64
76586;BME280;65251;51.022;13.736;2023-02-01T00:06:43;99136.47;;;4.82;72.91
76586;BME280;65251;51.022;13.736;2023-02-01T00:07:15;99139.28;;;4.80;72.80
76586;BME280;65251;51.022;13.736;2023-02-01T00:07:47;99139.50;;;4.79;73.00
76586;BME280;65251;51.022;13.736;2023-02-01T00:08:18;99129.94;;;4.78;73.06
76586;BME280;65251;51.022;13.736;2023-02-01T00:08:52;99129.94;;;4.78;72.55
76586;BME280;65251;51.022;13.736;2023-02-01T00:09:23;99131.09;;;4.75;72.89
76586;BME280;65251;51.022;13.736;2023-02-01T00:09:54;99140.81;;;4.75;72.67
76586;BME280;65251;51.022;13.736;2023-02-01T00:10:27;99140.81;;;4.75;72.69
76586;BME280;65251;51.022;13.736;2023-02-01T00:10:58;99134.72;;;4.74;72.54
76586;BME280;65251;51.022;13.736;2023-02-01T00:11:30;99133.72;;;4.75;72.84
76586;BME280;65251;51.022;13.736;2023-02-01T00:12:02;99135.22;;;4.78;72.73
76586;BME280;65251;51.022;13.736;2023-02-01T00:12:33;99131.75;;;4.77;72.39
76586;BME280;65251;51.022;13.736;2023-02-01T00:13:04;99144.94;;;4.77;72.39
76586;BME280;65251;51.022;13.736;2023-02-01T00:13:38;99139.28;;;4.80;72.60
76586;BME280;65251;51.022;13.736;2023-02-01T00:14:09;99150.06;;;4.79;72.93
76586;BME280;65251;51.022;13.736;2023-02-01T00:14:40;99150.88;;;4.79;73.01
76586;BME280;65251;51.022;13.736;2023-02-01T00:15:12;99155.78;;;4.82;72.75
76586;BME280;65251;51.022;13.736;2023-02-01T00:15:42;99148.69;;;4.83;72.45
76586;BME280;65251;51.022;13.736;2023-02-01T00:16:15;99147.69;;;4.84;72.66
76586;BME280;65251;51.022;13.736;2023-02-01T00:16:47;99148.53;;;4.84;72.66
76586;BME280;65251;51.022;13.736;2023-02-01T00:17:18;99146.53;;;4.87;72.68
76586;BME280;65251;51.022;13.736;2023-02-01T00:17:52;99155.94;;;4.89;72.33
76586;BME280;65251;51.022;13.736;2023-02-01T00:18:24;99146.19;;;4.90;72.62
76586;BME280;65251;51.022;13.736;2023-02-01T00:18:58;99148.66;;;4.91;72.70
76586;BME280;65251;51.022;13.736;2023-02-01T00:19:29;99148.50;;;4.93;72.27
76586;BME280;65251;51.022;13.736;2023-02-01T00:20:01;99144.88;;;4.94;72.25
76586;BME280;65251;51.022;13.736;2023-02-01T00:20:33;99150.97;;;4.94;72.58
76586;BME280;65251;51.022;13.736;2023-02-01T00:21:04;99144.38;;;4.90;72.76
76586;BME280;65251;51.022;13.736;2023-02-01T00:21:36;99148.50;;;4.93;72.27
76586;BME280;65251;51.022;13.736;2023-02-01T00:22:06;99146.84;;;4.92;72.52
76586;BME280;65251;51.022;13.736;2023-02-01T00:22:37;99152.47;;;4.89;72.51
76586;BME280;65251;51.022;13.736;2023-02-01T00:23:09;99153.94;;;4.91;72.64
76586;BME280;65251;51.022;13.736;2023-02-01T00:23:40;99154.13;;;4.90;72.51
76586;BME280;65251;51.022;13.736;2023-02-01T00:24:12;99146.03;;;4.91;72.56
76586;BME280;65251;51.022;13.736;2023-02-01T00:24:43;99149.50;;;4.92;72.64
76586;BME280;65251;51.022;13.736;2023-02-01T00:25:14;99157.59;;;4.90;72.83
76586;BME280;65251;51.022;13.736;2023-02-01T00:25:46;99146.19;;;4.90;72.79
76586;BME280;65251;51.022;13.736;2023-02-01T00:26:22;99147.34;;;4.87;72.10
76586;BME280;65251;51.022;13.736;2023-02-01T00:26:53;99150.00;;;4.87;72.23
76586;BME280;65251;51.022;13.736;2023-02-01T00:27:24;99153.94;;;4.91;72.45
76586;BME280;65251;51.022;13.736;2023-02-01T00:27:55;99155.75;;;4.91;72.33
76586;BME280;65251;51.022;13.736;2023-02-01T00:28:29;99151.31;;;4.91;72.53
76586;BME280;65251;51.022;13.736;2023-02-01T00:29:00;99163.53;;;4.92;72.33
76586;BME280;65251;51.022;13.736;2023-02-01T00:29:32;99153.78;;;4.93;72.82
76586;BME280;65251;51.022;13.736;2023-02-01T00:30:03;99152.13;;;4.92;72.28
76586;BME280;65251;51.022;13.736;2023-02-01T00:30:34;99160.06;;;4.92;72.55
76586;BME280;65251;51.022;13.736;2023-02-01T00:31:05;99154.13;;;4.90;72.52
76586;BME280;65251;51.022;13.736;2023-02-01T00:31:37;99154.94;;;4.90;72.64
76586;BME280;65251;51.022;13.736;2023-02-01T00:32:07;99155.59;;;4.92;72.68
76586;BME280;65251;51.022;13.736;2023-02-01T00:32:38;99158.88;;;4.94;72.30
76586;BME280;65251;51.022;13.736;2023-02-01T00:33:10;99157.25;;;4.93;72.66
76586;BME280;65251;51.022;13.736;2023-02-01T00:33:40;99152.63;;;4.95;72.55
76586;BME280;65251;51.022;13.736;2023-02-01T00:34:13;99156.25;;;4.94;72.65
76586;BME280;65251;51.022;13.736;2023-02-01T00:34:45;99155.25;;;4.95;72.75
76586;BME280;65251;51.022;13.736;2023-02-01T00:35:15;99147.34;;;4.95;72.52
76586;BME280;65251;51.022;13.736;2023-02-01T00:35:46;99142.72;;;4.97;72.48
76586;BME280;65251;51.022;13.736;2023-02-01T00:36:18;99149.63;;;4.98;72.37
76586;BME280;65251;51.022;13.736;2023-02-01T00:36:48;99146.34;;;4.96;72.59
76586;BME280;65251;51.022;13.736;2023-02-01T00:37:19;99145.34;;;4.97;72.93
76586;BME280;65251;51.022;13.736;2023-02-01T00:37:51;99160.38;;;4.97;72.63
76586;BME280;65251;51.022;13.736;2023-02-01T00:38:22;99154.25;;;4.96;72.82
76586;BME280;65251;51.022;13.736;2023-02-01T00:38:53;99155.25;;;4.95;72.37
76586;BME280;65251;51.022;13.736;2023-02-01T00:39:24;99144.34;;;4.98;72.52
76586;BME280;65251;51.022;13.736;2023-02-01T00:39:56;99155.53;;;5.00;72.55
76586;BME280;65251;51.022;13.736;2023-02-01T00:40:27;99142.34;;;5.00;72.58
76586;BME280;65251;51.022;13.736;2023-02-01T00:41:04;99151.91;;;5.01;72.47
76586;BME280;65251;51.022;13.736;2023-02-01T00:41:35;99150.09;;;5.02;72.27
76586;BME280;65251;51.022;13.736;2023-02-01T00:42:07;99149.28;;;5.01;72.85
76586;BME280;65251;51.022;13.736;2023-02-01T00:42:38;99150.09;;;5.02;72.37
76586;BME280;65251;51.022;13.736;2023-02-01T00:43:09;99151.75;;;5.03;72.36
76586;BME280;65251;51.022;13.736;2023-02-01T00:43:40;99150.09;;;5.02;72.56
76586;BME280;65251;51.022;13.736;2023-02-01T00:44:11;99155.75;;;4.99;72.37
76586;BME280;65251;51.022;13.736;2023-02-01T00:44:42;99155.75;;;4.99;72.25
76586;BME280;65251;51.022;13.736;2023-02-01T00:45:14;99159.38;;;4.98;72.30
76586;BME280;65251;51.022;13.736;2023-02-01T00:45:45;99157.56;;;4.98;72.31
76586;BME280;65251;51.022;13.736;2023-02-01T00:46:17;99155.38;;;5.02;72.30
76586;BME280;65251;51.022;13.736;2023-02-01T00:46:49;99163.13;;;5.03;72.31
76586;BME280;65251;51.022;13.736;2023-02-01T00:47:20;99155.69;;;5.07;72.09
76586;BME280;65251;51.022;13.736;2023-02-01T00:47:51;99154.69;;;5.08;72.08
76586;BME280;65251;51.022;13.736;2023-02-01T00:48:23;99159.97;;;5.08;72.05
76586;BME280;65251;51.022;13.736;2023-02-01T00:48:54;99161.97;;;5.06;72.32
76586;BME280;65251;51.022;13.736;2023-02-01T00:49:25;99153.88;;;5.07;71.93
76586;BME280;65251;51.022;13.736;2023-02-01T00:49:57;99152.06;;;5.08;71.79
76586;BME280;65251;51.022;13.736;2023-02-01T00:50:27;99154.69;;;5.08;72.08
76586;BME280;65251;51.022;13.736;2023-02-01T00:50:59;99161.63;;;5.09;71.85
76586;BME280;65251;51.022;13.736;2023-02-01T00:51:30;99148.41;;;5.09;71.54
76586;BME280;65251;51.022;13.736;2023-02-01T00:52:02;99153.03;;;5.07;71.62
76586;BME280;65251;51.022;13.736;2023-02-01T00:52:33;99140.50;;;5.09;71.54
76586;BME280;65251;51.022;13.736;2023-02-01T00:53:03;99157.34;;;5.08;71.67
76586;BME280;65251;51.022;13.736;2023-02-01T00:53:35;99155.53;;;5.08;71.23
76586;BME280;65251;51.022;13.736;2023-02-01T00:54:07;99152.88;;;5.08;70.67
76586;BME280;65251;51.022;13.736;2023-02-01T00:54:37;99140.19;;;5.04;70.56
76586;BME280;65251;51.022;13.736;2023-02-01T00:55:08;99159.81;;;5.09;70.97
76586;BME280;65251;51.022;13.736;2023-02-01T00:55:40;99159.97;;;5.08;71.10
76586;BME280;65251;51.022;13.736;2023-02-01T00:56:13;99161.63;;;5.09;70.68
76586;BME280;65251;51.022;13.736;2023-02-01T00:56:43;99153.22;;;5.05;71.03
76586;BME280;65251;51.022;13.736;2023-02-01T00:57:15;99143.31;;;5.07;70.72
76586;BME280;65251;51.022;13.736;2023-02-01T00:57:46;99164.59;;;5.06;70.80
76586;BME280;65251;51.022;13.736;2023-02-01T00:58:17;99154.03;;;5.06;71.11
76586;BME280;65251;51.022;13.736;2023-02-01T00:58:48;99153.88;;;5.07;70.99
76586;BME280;65251;51.022;13.736;2023-02-01T00:59:19;99157.34;;;5.08;70.99
76586;BME280;65251;51.022;13.736;2023-02-01T00:59:50;99159.31;;;5.06;70.67
76586;BME280;65251;51.022;13.736;2023-02-01T01:00:21;99154.88;;;5.06;70.40
76586;BME280;65251;51.022;13.736;2023-02-01T01:01:01;99163.78;;;5.05;70.35
76586;BME280;65251;51.022;13.736;2023-02-01T01:01:31;99162.13;;;5.04;70.89
76586;BME280;65251;51.022;13.736;2023-02-01T01:02:03;99163.28;;;5.02;70.41
76586;BME280;65251;51.022;13.736;2023-02-01T01:02:34;99155.38;;;5.02;70.51
76586;BME280;65251;51.022;13.736;2023-02-01T01:03:05;99167.41;;;5.04;70.98
76586;BME280;65251;51.022;13.736;2023-02-01T01:03:49;99167.59;;;5.03;70.86
76586;BME280;65251;51.022;13.736;2023-02-01T01:04:21;99161.66;;;5.01;70.88
76586;BME280;65251;51.022;13.736;2023-02-01T01:04:52;99163.47;;;5.00;70.50
76586;BME280;65251;51.022;13.736;2023-02-01T01:05:23;99161.47;;;5.02;70.90
76586;BME280;65251;51.022;13.736;2023-02-01T01:05:57;99170.75;;;4.98;71.17
76586;BME280;65251;51.022;13.736;2023-02-01T01:06:30;99162.03;;;4.98;71.01
76586;BME280;65251;51.022;13.736;2023-02-01T01:07:01;99164.00;;;4.96;70.88
76586;BME280;65251;51.022;13.736;2023-02-01T01:07:33;99157.72;;;4.97;70.94
76586;BME280;65251;51.022;13.736;2023-02-01T01:08:04;99165.66;;;4.97;70.83
76586;BME280;65251;51.022;13.736;2023-02-01T01:08:34;99163.84;;;4.97;70.91
76586;BME280;65251;51.022;13.736;2023-02-01T01:09:07;99157.06;;;4.95;71.32
76586;BME280;65251;51.022;13.736;2023-02-01T01:09:39;99156.25;;;4.94;71.18
76586;BME280;65251;51.022;13.736;2023-02-01T01:10:10;99159.53;;;4.96;70.95
76586;BME280;65251;51.022;13.736;2023-02-01T01:10:41;99168.28;;;4.97;70.76
76586;BME280;65251;51.022;13.736;2023-02-01T01:11:16;99168.13;;;4.98;70.81
76586;BME280;65251;51.022;13.736;2023-02-01T01:11:48;99167.63;;;4.95;70.89
76586;BME280;65251;51.022;13.736;2023-02-01T01:12:21;99163.00;;;4.97;71.05
76586;BME280;65251;51.022;13.736;2023-02-01T01:12:51;99163.00;;;4.97;70.60
76586;BME280;65251;51.022;13.736;2023-02-01T01:13:23;99168.97;;;4.91;70.85
76586;BME280;65251;51.022;13.736;2023-02-01T01:13:56;99164.34;;;4.93;71.03
76586;BME280;65251;51.022;13.736;2023-02-01T01:14:27;99153.94;;;4.91;70.85
76586;BME280;65251;51.022;13.736;2023-02-01T01:14:58;99166.16;;;4.92;70.61
76586;BME280;65251;51.022;13.736;2023-02-01T01:15:29;99169.13;;;4.89;70.48
76586;BME280;65251;51.022;13.736;2023-02-01T01:16:00;99162.69;;;4.92;70.51
76586;BME280;65251;51.022;13.736;2023-02-01T01:16:33;99166.97;;;4.93;71.02
76586;BME280;65251;51.022;13.736;2023-02-01T01:17:05;99160.88;;;4.92;70.79
76586;BME280;65251;51.022;13.736;2023-02-01T01:17:36;99167.81;;;4.93;70.59
76586;BME280;65251;51.022;13.736;2023-02-01T01:18:07;99160.53;;;4.95;70.76
76586;BME280;65251;51.022;13.736;2023-02-01T01:18:38;99157.41;;;4.92;71.00
76586;BME280;65251;51.022;13.736;2023-02-01T01:19:10;99159.88;;;4.93;70.52
76586;BME280;65251;51.022;13.736;2023-02-01T01:19:40;99164.81;;;4.96;70.35
76586;BME280;65251;51.022;13.736;2023-02-01T01:20:12;99157.06;;;4.95;70.46
76586;BME280;65251;51.022;13.736;2023-02-01T01:20:43;99157.72;;;4.97;70.40
76586;BME280;65251;51.022;13.736;2023-02-01T01:21:15;99154.25;;;4.96;70.54
76586;BME280;65251;51.022;13.736;2023-02-01T01:21:46;99153.63;;;4.94;70.51
76586;BME280;65251;51.022;13.736;2023-02-01T01:22:18;99156.09;;;4.96;70.13
76586;BME280;65251;51.022;13.736;2023-02-01T01:22:49;99154.44;;;4.95;70.29
76586;BME280;65251;51.022;13.736;2023-02-01T01:23:20;99154.59;;;4.93;70.70
76586;BME280;65251;51.022;13.736;2023-02-01T01:23:51;99156.91;;;4.96;70.12
76586;BME280;65251;51.022;13.736;2023-02-01T01:24:22;99154.44;;;4.95;70.45
76586;BME280;65251;51.022;13.736;2023-02-01T01:24:53;99156.25;;;4.94;70.57
76586;BME280;65251;51.022;13.736;2023-02-01T01:25:24;99158.72;;;4.96;70.48
76586;BME280;65251;51.022;13.736;2023-02-01T01:25:55;99156.09;;;4.96;70.03
76586;BME280;65251;51.022;13.736;2023-02-01T01:26:29;99155.91;;;4.97;69.99
76586;BME280;65251;51.022;13.736;2023-02-01T01:27:00;99156.91;;;4.96;70.35
76586;BME280;65251;51.022;13.736;2023-02-01T01:27:31;99156.75;;;4.98;70.19
76586;BME280;65251;51.022;13.736;2023-02-01T01:28:02;99157.72;;;4.97;69.90
76586;BME280;65251;51.022;13.736;2023-02-01T01:28:33;99157.72;;;4.97;70.19
76586;BME280;65251;51.022;13.736;2023-02-01T01:29:05;99152.44;;;4.97;70.15
76586;BME280;65251;51.022;13.736;2023-02-01T01:29:36;99155.25;;;4.95;70.46
76586;BME280;65251;51.022;13.736;2023-02-01T01:30:08;99162.19;;;4.96;70.70
76586;BME280;65251;51.022;13.736;2023-02-01T01:30:39;99154.09;;;4.98;70.00
76586;BME280;65251;51.022;13.736;2023-02-01T01:31:11;99160.53;;;4.95;69.61
76586;BME280;65251;51.022;13.736;2023-02-01T01:31:42;99159.22;;;4.99;69.58
76586;BME280;65251;51.022;13.736;2023-02-01T01:32:14;99152.28;;;4.98;69.71
76586;BME280;65251;51.022;13.736;2023-02-01T01:32:45;99162.84;;;4.98;69.73
76586;BME280;65251;51.022;13.736;2023-02-01T01:33:16;99154.91;;;4.98;69.75
76586;BME280;65251;51.022;13.736;2023-02-01T01:33:52;99156.91;;;4.96;70.27
76586;BME280;65251;51.022;13.736;2023-02-01T01:34:23;99148.44;;;5.01;69.71
76586;BME280;65251;51.022;13.736;2023-02-01T01:34:54;99148.66;;;4.99;69.81
76586;BME280;65251;51.022;13.736;2023-02-01T01:35:25;99150.25;;;5.00;69.72
76586;BME280;65251;51.022;13.736;2023-02-01T01:35:56;99154.56;;;5.01;69.83
76586;BME280;65251;51.022;13.736;2023-02-01T01:36:28;99144.00;;;5.01;69.77
76586;BME280;65251;51.022;13.736;2023-02-01T01:36:59;99151.47;;;4.98;69.49
76586;BME280;65251;51.022;13.736;2023-02-01T01:37:31;99146.19;;;4.98;69.22
76586;BME280;65251;51.022;13.736;2023-02-01T01:38:02;99152.09;;;5.00;69.37
76586;BME280;65251;51.022;13.736;2023-02-01T01:38:34;99148.66;;;4.99;69.13
76586;BME280;65251;51.022;13.736;2023-02-01T01:39:05;99153.28;;;4.97;69.36
76586;BME280;65251;51.022;13.736;2023-02-01T01:39:36;99159.38;;;4.98;69.24
76586;BME280;65251;51.022;13.736;2023-02-01T01:40:10;99149.16;;;4.95;69.44
76586;BME280;65251;51.022;13.736;2023-02-01T01:40:45;99151.97;;;4.93;69.54
76586;BME280;65251;51.022;13.736;2023-02-01T01:41:18;99151.31;;;4.91;69.59
76586;BME280;65251;51.022;13.736;2023-02-01T01:41:52;99156.94;;;4.88;69.95
76586;BME280;65251;51.022;13.736;2023-02-01T01:42:22;99151.66;;;4.88;69.56
76586;BME280;65251;51.022;13.736;2023-02-01T01:42:53;99149.00;;;4.88;69.71
76586;BME280;65251;51.022;13.736;2023-02-01T01:43:43;99148.00;;;4.89;69.08
76586;BME280;65251;51.022;13.736;2023-02-01T01:44:55;99149.66;;;4.90;69.29
76586;BME280;65251;51.022;13.736;2023-02-01T01:45:30;99146.03;;;4.91;69.21
76586;BME280;65251;51.022;13.736;2023-02-01T01:46:01;99148.66;;;4.91;69.56
76586;BME280;65251;51.022;13.736;2023-02-01T01:46:34;99147.03;;;4.90;69.86
76586;BME280;65251;51.022;13.736;2023-02-01T01:47:06;99144.88;;;4.94;69.50
76586;BME280;65251;51.022;13.736;2023-02-01T01:47:44;99148.50;;;4.93;69.32
76586;BME280;65251;51.022;13.736;2023-02-01T01:48:25;99149.66;;;4.90;69.52
76586;BME280;65251;51.022;13.736;2023-02-01T01:49:05;99136.81;;;4.87;69.26
76586;BME280;65251;51.022;13.736;2023-02-01T01:49:37;99149.00;;;4.88;69.73
76586;BME280;65251;51.022;13.736;2023-02-01T01:50:14;99152.31;;;4.90;69.67
76586;BME280;65251;51.022;13.736;2023-02-01T01:50:51;99149.66;;;4.90;69.42
76586;BME280;65251;51.022;13.736;2023-02-01T01:51:28;99142.09;;;4.87;69.56
76586;BME280;65251;51.022;13.736;2023-02-01T01:52:02;99152.81;;;4.85;69.46
76586;BME280;65251;51.022;13.736;2023-02-01T01:52:35;99148.19;;;4.88;69.85
76586;BME280;65251;51.022;13.736;2023-02-01T01:53:12;99142.91;;;4.88;69.39
76586;BME280;65251;51.022;13.736;2023-02-01T01:53:53;99139.44;;;4.87;69.54
76586;BME280;65251;51.022;13.736;2023-02-01T01:54:29;99146.38;;;4.88;69.09
76586;BME280;65251;51.022;13.736;2023-02-01T01:55:04;99151.47;;;4.90;69.44
76586;BME280;65251;51.022;13.736;2023-02-01T01:55:39;99147.03;;;4.90;69.50
76586;BME280;65251;51.022;13.736;2023-02-01T01:56:13;99140.25;;;4.88;69.43
76586;BME280;65251;51.022;13.736;2023-02-01T01:56:49;99139.44;;;4.87;69.54
76586;BME280;65251;51.022;13.736;2023-02-01T01:57:27;99142.25;;;4.85;69.48
76586;BME280;65251;51.022;13.736;2023-02-01T01:58:03;99145.72;;;4.86;69.35
76586;BME280;65251;51.022;13.736;2023-02-01T01:58:36;99134.16;;;4.87;69.29
76586;BME280;65251;51.022;13.736;2023-02-01T01:59:09;99142.09;;;4.87;69.63
76586;BME280;65251;51.022;13.736;2023-02-01T01:59:46;99143.72;;;4.88;69.39
76586;BME280;65251;51.022;13.736;2023-02-01T02:00:20;99137.63;;;4.88;69.40
76586;BME280;65251;51.022;13.736;2023-02-01T02:00:53;99141.09;;;4.88;69.39
76586;BME280;65251;51.022;13.736;2023-02-01T02:01:24;99145.72;;;4.86;69.52
76586;BME280;65251;51.022;13.736;2023-02-01T02:01:56;99133.16;;;4.88;69.25
76586;BME280;65251;51.022;13.736;2023-02-01T02:02:27;99146.19;;;4.90;69.28
76586;BME280;65251;51.022;13.736;2023-02-01T02:03:02;99140.09;;;4.89;69.06
76586;BME280;65251;51.022;13.736;2023-02-01T02:03:40;99139.59;;;4.85;69.33
76586;BME280;65251;51.022;13.736;2023-02-01T02:04:12;99136.16;;;4.85;69.06
76586;BME280;65251;51.022;13.736;2023-02-01T02:04:46;99133.84;;;4.82;69.30
76586;BME280;65251;51.022;13.736;2023-02-01T02:05:19;99130.38;;;4.81;69.71
76586;BME280;65251;51.022;13.736;2023-02-01T02:05:52;99126.28;;;4.79;69.43
76586;BME280;65251;51.022;13.736;2023-02-01T02:06:34;99129.94;;;4.78;69.25
76586;BME280;65251;51.022;13.736;2023-02-01T02:07:11;99131.75;;;4.77;69.29
76586;BME280;65251;51.022;13.736;2023-02-01T02:07:47;99127.47;;;4.76;69.50
76586;BME280;65251;51.022;13.736;2023-02-01T02:08:20;99130.38;;;4.81;69.26
76586;BME280;65251;51.022;13.736;2023-02-01T02:08:52;99122.84;;;4.78;69.42
76586;BME280;65251;51.022;13.736;2023-02-01T02:09:23;99132.41;;;4.79;69.09
76586;BME280;65251;51.022;13.736;2023-02-01T02:09:56;99131.75;;;4.77;69.17
76586;BME280;65251;51.022;13.736;2023-02-01T02:10:27;99133.19;;;4.80;69.22
76586;BME280;65251;51.022;13.736;2023-02-01T02:11:18;99138.66;;;4.78;68.83
76586;BME280;65251;51.022;13.736;2023-02-01T02:11:49;99138.47;;;4.80;69.25
76586;BME280;65251;51.022;13.736;2023-02-01T02:12:22;99126.28;;;4.79;68.90
76586;BME280;65251;51.022;13.736;2023-02-01T02:12:53;99138.31;;;4.81;69.26
76586;BME280;65251;51.022;13.736;2023-02-01T02:13:28;99133.84;;;4.82;68.84
76586;BME280;65251;51.022;13.736;2023-02-01T02:14:03;99129.75;;;4.79;69.21
76586;BME280;65251;51.022;13.736;2023-02-01T02:14:36;99132.41;;;4.79;69.41
76586;BME280;65251;51.022;13.736;2023-02-01T02:15:10;99126.28;;;4.79;68.61
76586;BME280;65251;51.022;13.736;2023-02-01T02:15:49;99124.28;;;4.81;68.21
76586;BME280;65251;51.022;13.736;2023-02-01T02:16:40;99128.28;;;4.77;68.39
76586;BME280;65251;51.022;13.736;2023-02-01T02:17:30;99134.84;;;4.81;68.42
76586;BME280;65251;51.022;13.736;2023-02-01T02:18:11;99135.50;;;4.83;68.03
76586;BME280;65251;51.022;13.736;2023-02-01T02:18:56;99128.56;;;4.82;67.97
76586;BME280;65251;51.022;13.736;2023-02-01T02:20:56;99124.75;;;4.84;67.79
76586;BME280;65251;51.022;13.736;2023-02-01T02:21:50;99120.31;;;4.85;67.95
76586;BME280;65251;51.022;13.736;2023-02-01T02:22:48;99118.50;;;4.85;67.78
76586;BME280;65251;51.022;13.736;2023-02-01T02:23:58;99122.94;;;4.85;67.65
76586;BME280;65251;51.022;13.736;2023-02-01T02:24:54;99110.25;;;4.89;67.22
76586;BME280;65251;51.022;13.736;2023-02-01T02:25:46;99115.50;;;4.89;67.59
76586;BME280;65251;51.022;13.736;2023-02-01T02:26:35;99112.06;;;4.88;68.11
76586;BME280;65251;51.022;13.736;2023-02-01T02:27:17;99119.97;;;4.88;67.97
76586;BME280;65251;51.022;13.736;2023-02-01T02:28:05;99119.16;;;4.88;67.71
76586;BME280;65251;51.022;13.736;2023-02-01T02:31:29;99104.47;;;4.85;67.75
76586;BME280;65251;51.022;13.736;2023-02-01T02:32:28;99124.75;;;4.84;67.62
76586;BME280;65251;51.022;13.736;2023-02-01T02:33:32;99124.44;;;4.88;67.94
76586;BME280;65251;51.022;13.736;2023-02-01T02:34:14;99116.69;;;4.86;67.74
76586;BME280;65251;51.022;13.736;2023-02-01T02:34:53;99118.97;;;4.89;67.74
76586;BME280;65251;51.022;13.736;2023-02-01T02:35:30;99112.06;;;4.88;67.56
76586;BME280;65251;51.022;13.736;2023-02-01T02:36:10;99101.31;;;4.90;67.99
76586;BME280;65251;51.022;13.736;2023-02-01T02:36:59;99120.78;;;4.89;67.60
76586;BME280;65251;51.022;13.736;2023-02-01T02:37:40;99100.84;;;4.86;67.75
76586;BME280;65251;51.022;13.736;2023-02-01T02:38:21;99110.41;;;4.87;67.97
76586;BME280;65251;51.022;13.736;2023-02-01T02:39:05;99109.75;;;4.85;68.07
76586;BME280;65251;51.022;13.736;2023-02-01T02:39:47;99113.22;;;4.85;67.88
76586;BME280;65251;51.022;13.736;2023-02-01T02:40:31;99117.03;;;4.83;67.83
76586;BME280;65251;51.022;13.736;2023-02-01T02:41:08;99110.56;;;4.85;67.48
76586;BME280;65251;51.022;13.736;2023-02-01T02:41:50;99115.03;;;4.85;67.70
76586;BME280;65251;51.022;13.736;2023-02-01T02:42:52;99107.75;;;4.87;67.97
76586;BME280;65251;51.022;13.736;2023-02-01T02:43:53;99108.09;;;4.84;67.41
76586;BME280;65251;51.022;13.736;2023-02-01T02:44:50;99111.56;;;4.84;67.48
76586;BME280;65251;51.022;13.736;2023-02-01T02:45:49;99098.03;;;4.88;67.45
76586;BME280;65251;51.022;13.736;2023-02-01T02:46:48;99101.50;;;4.88;67.71
76586;BME280;65251;51.022;13.736;2023-02-01T02:47:49;99098.03;;;4.88;67.71
76586;BME280;65251;51.022;13.736;2023-02-01T02:48:29;99112.06;;;4.88;67.42
76586;BME280;65251;51.022;13.736;2023-02-01T02:49:08;99107.75;;;4.87;67.61
76586;BME280;65251;51.022;13.736;2023-02-01T02:49:50;99108.59;;;4.88;68.32
76586;BME280;65251;51.022;13.736;2023-02-01T02:50:48;99112.22;;;4.87;67.35
76586;BME280;65251;51.022;13.736;2023-02-01T02:51:46;99101.31;;;4.90;67.69
76586;BME280;65251;51.022;13.736;2023-02-01T02:52:42;99104.13;;;4.88;67.68
76586;BME280;65251;51.022;13.736;2023-02-01T02:53:38;99107.59;;;4.89;68.00
76586;BME280;65251;51.022;13.736;2023-02-01T02:54:35;99113.88;;;4.88;68.10
76586;BME280;65251;51.022;13.736;2023-02-01T02:55:16;99114.69;;;4.88;67.85
76586;BME280;65251;51.022;13.736;2023-02-01T02:55:52;99113.22;;;4.85;67.78
76586;BME280;65251;51.022;13.736;2023-02-01T02:56:41;99113.22;;;4.85;67.90
76586;BME280;65251;51.022;13.736;2023-02-01T02:57:36;99103.16;;;4.81;68.00
76586;BME280;65251;51.022;13.736;2023-02-01T02:58:26;99113.09;;;4.79;68.09
76586;BME280;65251;51.022;13.736;2023-02-01T02:59:20;99110.63;;;4.77;68.46
76586;BME280;65251;51.022;13.736;2023-02-01T03:00:14;99106.78;;;4.80;67.58
76586;BME280;65251;51.022;13.736;2023-02-01T03:01:04;99106.63;;;4.81;67.88
76586;BME280;65251;51.022;13.736;2023-02-01T03:01:54;99108.09;;;4.84;68.11
76586;BME280;65251;51.022;13.736;2023-02-01T03:02:45;99110.56;;;4.85;67.69
76586;BME280;65251;51.022;13.736;2023-02-01T03:03:37;99109.59;;;4.87;67.56
76586;BME280;65251;51.022;13.736;2023-02-01T03:04:28;99119.97;;;4.88;67.82
76586;BME280;65251;51.022;13.736;2023-02-01T03:05:00;99112.22;;;4.87;67.62
76586;BME280;65251;51.022;13.736;2023-02-01T03:05:35;99110.75;;;4.84;67.84
76586;BME280;65251;51.022;13.736;2023-02-01T03:06:12;99111.91;;;4.81;67.75
76586;BME280;65251;51.022;13.736;2023-02-01T03:06:45;99116.03;;;4.84;68.34
76586;BME280;65251;51.022;13.736;2023-02-01T03:07:49;99112.06;;;4.80;67.93
76586;BME280;65251;51.022;13.736;2023-02-01T03:08:26;99118.84;;;4.82;67.68
76586;BME280;65251;51.022;13.736;2023-02-01T03:09:01;99113.38;;;4.84;67.90
76586;BME280;65251;51.022;13.736;2023-02-01T03:09:37;99127.56;;;4.83;67.97
76586;BME280;65251;51.022;13.736;2023-02-01T03:10:20;99118.66;;;4.84;67.88
76586;BME280;65251;51.022;13.736;2023-02-01T03:11:00;99115.38;;;4.82;68.23
76586;BME280;65251;51.022;13.736;2023-02-01T03:11:35;99120.81;;;4.80;67.89
76586;BME280;65251;51.022;13.736;2023-02-01T03:12:21;99123.28;;;4.82;67.87
76586;BME280;65251;51.022;13.736;2023-02-01T03:13:20;99114.53;;;4.81;67.91
76586;BME280;65251;51.022;13.736;2023-02-01T03:14:00;99119.00;;;4.81;67.96